Time;durP1;ratioP1;P1;durP2;ratioP2;P2;SDS_P1;SDS_P2;PMS_P1;PMS_P2;Temp;Humidity;BMP_temperature;BMP_pressure;BME280_temperature;BME280_humidity;BME280_pressure;Samples;Min_cycle;Max_cycle;Signal;HPM_P1;HPM_P2
2023/02/16 00:00:37;;;;;;;85.03;39.97;;;-2.50;99.90;;;;;;4188655;28;20281;-66
2023/02/16 00:02:38;;;;;;;98.70;41.63;;;-2.50;99.90;;;;;;4193861;28;20257;-67
2023/02/16 00:04:39;;;;;;;91.33;41.33;;;-2.40;99.90;;;;;;4193087;28;20626;-62
2023/02/16 00:06:40;;;;;;;94.17;42.77;;;-2.40;99.90;;;;;;4193382;28;20652;-65
2023/02/16 00:08:43;;;;;;;98.37;41.97;;;-2.40;99.90;;;;;;4193983;28;20323;-63
2023/02/16 00:13:43;;;;;;;90.68;41.60;;;-2.50;99.90;;;;;;4194875;28;20346;-61
2023/02/16 00:15:44;;;;;;;94.87;39.10;;;-2.50;99.90;;;;;;4193886;28;20096;-68
2023/02/16 00:17:45;;;;;;;85.50;38.70;;;-2.50;99.90;;;;;;4183993;28;20270;-62
2023/02/16 00:19:47;;;;;;;101.30;41.23;;;-2.50;99.90;;;;;;4177047;28;20250;-65
2023/02/16 00:21:50;;;;;;;97.80;41.23;;;-2.50;99.90;;;;;;4178021;28;20308;-68
2023/02/16 00:23:52;;;;;;;86.77;40.00;;;-2.50;99.90;;;;;;4177004;28;20672;-68
2023/02/16 00:25:53;;;;;;;92.27;40.50;;;-2.50;99.90;;;;;;4178003;28;20270;-68
2023/02/16 00:27:54;;;;;;;85.00;38.20;;;-2.50;99.90;;;;;;4176458;28;20328;-63
2023/02/16 00:29:55;;;;;;;90.33;37.43;;;-2.50;99.90;;;;;;4177375;28;20293;-62
2023/02/16 00:31:58;;;;;;;82.87;35.63;;;-2.60;99.90;;;;;;4182969;28;20319;-64
2023/02/16 00:34:15;;;;;;;80.57;35.97;;;-2.60;99.90;;;;;;4194244;28;20265;-62
2023/02/16 00:36:17;;;;;;;83.17;35.60;;;-2.70;99.90;;;;;;4193384;28;20253;-63
2023/02/16 00:38:18;;;;;;;70.97;29.93;;;-2.80;99.90;;;;;;4194634;28;20257;-62
2023/02/16 00:40:19;;;;;;;79.40;34.97;;;-2.80;99.90;;;;;;4186755;28;20270;-64
2023/02/16 00:42:25;;;;;;;84.93;39.73;;;-2.80;99.90;;;;;;4178765;28;20419;-65
2023/02/16 00:44:32;;;;;;;86.53;38.57;;;-2.80;99.90;;;;;;4190570;28;20783;-61
2023/02/16 00:46:33;;;;;;;84.67;38.30;;;-2.90;99.90;;;;;;4193608;28;20270;-62
2023/02/16 00:48:34;;;;;;;90.93;41.37;;;-2.90;99.90;;;;;;4193463;28;20273;-64
2023/02/16 00:50:36;;;;;;;86.70;39.07;;;-2.90;99.90;;;;;;4196028;28;20265;-69
2023/02/16 00:52:42;;;;;;;80.30;37.40;;;-2.90;99.90;;;;;;4197205;28;20265;-61
2023/02/16 00:54:43;;;;;;;84.10;35.10;;;-2.90;99.90;;;;;;4196844;28;20269;-68
2023/02/16 00:56:45;;;;;;;95.73;35.70;;;-2.90;99.90;;;;;;4197388;28;20254;-62
2023/02/16 00:58:49;;;;;;;82.50;35.87;;;-3.00;99.90;;;;;;4196508;28;20253;-62
2023/02/16 01:00:54;;;;;;;86.10;36.53;;;-3.10;99.90;;;;;;4188843;28;20692;-61
2023/02/16 01:02:58;;;;;;;89.70;37.47;;;-3.20;99.90;;;;;;4181865;28;20284;-63
2023/02/16 01:04:59;;;;;;;95.60;37.13;;;-3.30;99.90;;;;;;4181488;28;20328;-62
2023/02/16 01:11:39;;;;;;;96.67;36.63;;;-3.40;99.90;;;;;;4191951;28;20351;-62
2023/02/16 01:13:44;;;;;;;201.83;45.67;;;-3.40;99.90;;;;;;4197448;28;20672;-61
2023/02/16 01:15:45;;;;;;;191.47;45.90;;;-3.60;99.90;;;;;;4196347;28;20315;-60
2023/02/16 01:17:47;;;;;;;234.33;47.53;;;-3.70;99.90;;;;;;4196950;28;20327;-66
2023/02/16 01:19:48;;;;;;;190.33;46.10;;;-3.80;99.90;;;;;;4196261;28;20749;-61
2023/02/16 01:21:49;;;;;;;223.00;50.37;;;-3.90;99.90;;;;;;4196778;28;20281;-62
2023/02/16 01:23:50;;;;;;;221.27;45.93;;;-3.90;99.90;;;;;;4195665;28;20269;-62
2023/02/16 01:25:51;;;;;;;224.90;48.57;;;-4.00;99.90;;;;;;4197032;28;20323;-61
2023/02/16 01:27:53;;;;;;;183.80;47.13;;;-4.00;99.90;;;;;;4196035;28;20269;-65
2023/02/16 01:29:54;;;;;;;277.17;52.80;;;-4.10;99.90;;;;;;4182401;28;20408;-63
2023/02/16 01:31:55;;;;;;;269.33;51.47;;;-4.20;99.90;;;;;;4179480;28;20284;-61
2023/02/16 01:33:56;;;;;;;157.53;46.20;;;-4.20;99.90;;;;;;4179381;28;20328;-62
2023/02/16 01:35:57;;;;;;;252.47;48.40;;;-4.30;99.90;;;;;;4180114;28;20750;-63
2023/02/16 01:37:59;;;;;;;243.07;51.03;;;-4.30;99.90;;;;;;4180330;28;20619;-65
2023/02/16 01:40:00;;;;;;;303.17;57.00;;;-4.30;99.90;;;;;;4187862;28;20262;-62
2023/02/16 01:42:39;;;;;;;335.03;55.73;;;-4.40;99.90;;;;;;4179215;28;20274;-62
2023/02/16 01:45:12;;;;;;;295.77;56.03;;;-4.40;99.90;;;;;;4180922;28;20855;-61
2023/02/16 01:47:31;;;;;;;366.93;60.83;;;-4.40;99.90;;;;;;4163848;28;20269;-66
2023/02/16 01:49:33;;;;;;;326.90;56.40;;;-4.50;99.90;;;;;;4179107;28;20298;-66
2023/02/16 01:51:44;;;;;;;430.50;62.97;;;-4.40;99.90;;;;;;4192003;28;20332;-63
2023/02/16 01:54:05;;;;;;;586.53;71.47;;;-4.40;99.90;;;;;;4195221;28;20082;-67
2023/02/16 01:56:31;;;;;;;299.00;52.28;;;-4.40;99.90;;;;;;4196812;28;20265;-63
2023/02/16 01:58:53;;;;;;;299.77;53.00;;;-4.50;99.90;;;;;;4195638;28;20078;-63
2023/02/16 02:00:54;;;;;;;288.17;47.60;;;-4.40;99.90;;;;;;4195260;28;20826;-62
2023/02/16 02:05:33;;;;;;;187.37;44.93;;;-4.50;99.90;;;;;;4193612;28;20339;-63
2023/02/16 02:05:34;;;;;;;360.53;53.40;;;-4.40;99.90;;;;;;4192355;28;20324;-69
2023/02/16 02:07:54;;;;;;;232.80;44.03;;;-4.40;99.90;;;;;;4195503;28;20261;-67
2023/02/16 02:10:29;;;;;;;264.27;44.13;;;-4.40;99.90;;;;;;4196197;28;20342;-68
2023/02/16 02:12:39;;;;;;;423.38;55.58;;;-4.40;99.90;;;;;;4194723;28;20343;-62
2023/02/16 02:14:40;;;;;;;183.98;42.60;;;-4.50;99.90;;;;;;4196353;28;20462;-66
2023/02/16 02:16:56;;;;;;;292.83;46.25;;;-4.60;99.90;;;;;;4195287;28;20098;-61
2023/02/16 02:18:57;;;;;;;312.67;47.23;;;-4.60;99.90;;;;;;4196039;28;20020;-62
2023/02/16 02:23:52;;;;;;;126.68;37.85;;;-4.60;99.90;;;;;;4195632;28;20561;-66
2023/02/16 02:26:05;;;;;;;216.10;42.55;;;-4.60;99.90;;;;;;4195878;28;20040;-65
2023/02/16 02:28:25;;;;;;;312.15;41.63;;;-4.50;99.90;;;;;;4195102;28;20033;-62
2023/02/16 02:30:32;;;;;;;363.75;52.65;;;-4.50;99.90;;;;;;4195373;28;20459;-63
2023/02/16 02:32:48;;;;;;;308.13;42.30;;;-4.60;99.90;;;;;;4195339;28;20050;-66
2023/02/16 02:34:58;;;;;;;326.20;41.10;;;-4.60;99.90;;;;;;4183466;28;20443;-64
2023/02/16 02:37:20;;;;;;;265.80;40.20;;;-4.70;99.90;;;;;;4178384;28;20336;-64
2023/02/16 02:39:31;;;;;;;183.43;39.10;;;-4.70;99.90;;;;;;4179545;28;20045;-62
2023/02/16 02:42:03;;;;;;;353.75;46.63;;;-4.70;99.90;;;;;;4178304;28;20090;-65
2023/02/16 02:44:07;;;;;;;197.48;41.83;;;-4.60;99.90;;;;;;4179545;28;20098;-65
2023/02/16 02:46:16;;;;;;;235.25;43.05;;;-4.60;99.90;;;;;;4179409;28;20033;-63
2023/02/16 02:48:17;;;;;;;309.40;43.97;;;-4.70;99.90;;;;;;4178956;28;20432;-61
2023/02/16 02:53:12;;;;;;;259.15;40.13;;;-4.80;99.90;;;;;;4179777;28;20098;-67
2023/02/16 03:02:25;;;;;;;256.25;41.95;;;-4.80;99.90;;;;;;4178817;28;20090;-64
2023/02/16 03:04:30;;;;;;;233.57;42.33;;;-4.80;99.90;;;;;;4177762;28;20037;-67
2023/02/16 03:06:37;;;;;;;428.15;60.25;;;-4.80;99.90;;;;;;4181950;28;20033;-64
2023/02/16 03:08:42;;;;;;;339.20;46.45;;;-4.80;99.90;;;;;;4179752;28;20428;-60
2023/02/16 03:13:35;;;;;;;299.77;51.47;;;-4.80;99.90;;;;;;4194753;28;20530;-69
2023/02/16 03:15:37;;;;;;;239.90;45.90;;;-4.80;99.90;;;;;;4194879;28;20085;-63
2023/02/16 03:29:23;;;;;;;162.05;40.20;;;-4.70;99.90;;;;;;4177581;28;20083;-63
2023/02/16 03:31:31;;;;;;;242.63;47.13;;;-4.70;99.90;;;;;;4178678;28;20083;-63
2023/02/16 03:33:33;;;;;;;300.58;54.20;;;-4.70;99.90;;;;;;4175553;28;20040;-67
2023/02/16 03:35:35;;;;;;;305.20;54.20;;;-4.70;99.90;;;;;;4178479;28;20032;-63
2023/02/16 03:37:36;;;;;;;332.65;56.13;;;-4.70;99.90;;;;;;4177163;28;20033;-62
2023/02/16 03:42:01;;;;;;;202.77;48.70;;;-4.60;99.90;;;;;;4157661;28;20074;-62
2023/02/16 03:44:03;;;;;;;275.17;55.30;;;-4.60;99.90;;;;;;4178095;28;20033;-64
2023/02/16 03:46:04;;;;;;;271.53;50.73;;;-4.60;99.90;;;;;;4188285;28;20086;-61
2023/02/16 03:48:06;;;;;;;219.10;49.80;;;-4.50;99.90;;;;;;4190684;28;20332;-65
2023/02/16 03:50:08;;;;;;;239.88;47.00;;;-4.50;99.90;;;;;;4194189;28;20089;-60
2023/02/16 03:52:09;;;;;;;428.35;63.95;;;-4.40;99.90;;;;;;4192348;28;20141;-64
2023/02/16 03:54:11;;;;;;;250.25;51.83;;;-4.50;99.90;;;;;;4194400;28;20114;-67
2023/02/16 03:56:12;;;;;;;262.48;50.10;;;-4.50;99.90;;;;;;4184824;28;20041;-69
2023/02/16 03:58:17;;;;;;;283.90;59.03;;;-4.40;99.90;;;;;;4178165;28;20033;-63
2023/02/16 04:00:19;;;;;;;224.45;52.83;;;-4.40;99.90;;;;;;4176435;28;20494;-62
2023/02/16 04:02:21;;;;;;;485.47;78.93;;;-4.30;99.90;;;;;;4176684;28;20037;-64
2023/02/16 04:04:22;;;;;;;358.20;61.25;;;-4.40;99.90;;;;;;4176787;28;20282;-63
2023/02/16 04:06:23;;;;;;;209.00;50.75;;;-4.40;99.90;;;;;;4179156;28;20052;-66
2023/02/16 04:08:24;;;;;;;381.25;69.45;;;-4.40;99.90;;;;;;4175366;28;20078;-68
2023/02/16 04:10:27;;;;;;;305.67;58.25;;;-4.40;99.90;;;;;;4181216;28;20456;-68
2023/02/16 04:12:37;;;;;;;333.57;54.13;;;-4.40;99.90;;;;;;4177936;28;20041;-67
2023/02/16 04:14:38;;;;;;;238.77;50.35;;;-4.30;99.90;;;;;;4178532;28;20714;-69
2023/02/16 04:16:39;;;;;;;251.38;51.88;;;-4.30;99.90;;;;;;4177928;28;20049;-69
2023/02/16 04:18:40;;;;;;;278.98;52.10;;;-4.30;99.90;;;;;;4194387;28;20534;-67
2023/02/16 04:20:43;;;;;;;345.80;57.63;;;-4.30;99.90;;;;;;4193485;28;20058;-69
2023/02/16 04:22:45;;;;;;;269.10;54.97;;;-4.30;99.90;;;;;;4194008;28;20261;-67
2023/02/16 04:24:46;;;;;;;304.27;56.60;;;-4.30;99.90;;;;;;4196938;28;20457;-67
2023/02/16 04:26:48;;;;;;;295.73;55.60;;;-4.20;99.90;;;;;;4199335;28;20303;-69
2023/02/16 04:28:49;;;;;;;236.40;50.47;;;-4.30;99.90;;;;;;4199783;28;20036;-69
2023/02/16 04:30:50;;;;;;;189.53;44.80;;;-4.30;99.90;;;;;;4194446;28;20297;-64
2023/02/16 04:32:52;;;;;;;178.40;44.57;;;-4.20;99.90;;;;;;4199694;28;20350;-66
2023/02/16 04:34:53;;;;;;;249.43;53.43;;;-4.10;99.90;;;;;;4198454;28;20688;-68
2023/02/16 04:36:55;;;;;;;183.20;47.90;;;-4.10;99.90;;;;;;4199844;28;20257;-63
2023/02/16 04:38:56;;;;;;;235.47;53.63;;;-4.00;99.90;;;;;;4192699;28;20037;-69
2023/02/16 04:40:57;;;;;;;247.25;50.78;;;-4.00;99.90;;;;;;4183247;28;20257;-65
2023/02/16 04:42:58;;;;;;;286.75;59.17;;;-4.00;99.90;;;;;;4182078;28;20103;-68
2023/02/16 04:44:59;;;;;;;289.25;58.65;;;-4.00;99.90;;;;;;4194920;28;20443;-66
2023/02/16 04:47:02;;;;;;;392.97;66.13;;;-4.00;99.90;;;;;;4182052;28;20098;-68
2023/02/16 04:49:03;;;;;;;374.97;66.57;;;-4.00;99.90;;;;;;4183058;28;20254;-64
2023/02/16 04:51:05;;;;;;;216.47;49.47;;;-4.00;99.90;;;;;;4180372;28;20290;-70
2023/02/16 04:53:06;;;;;;;187.77;48.67;;;-4.00;99.90;;;;;;4182221;28;20369;-69
2023/02/16 04:55:09;;;;;;;156.33;50.03;;;-3.90;99.90;;;;;;4182414;28;20254;-69
2023/02/16 04:57:11;;;;;;;168.53;48.10;;;-3.80;99.90;;;;;;4183179;28;20310;-71
2023/02/16 04:59:13;;;;;;;232.17;50.33;;;-3.80;99.90;;;;;;4186488;28;20269;-68
2023/02/16 05:01:21;;;;;;;234.70;50.27;;;-3.70;99.90;;;;;;4187103;28;20365;-63
2023/02/16 05:03:22;;;;;;;179.97;51.73;;;-3.70;99.90;;;;;;4182952;28;20288;-65
2023/02/16 05:05:24;;;;;;;263.67;52.43;;;-3.70;99.90;;;;;;4184808;28;20331;-61
2023/02/16 05:07:25;;;;;;;358.83;99.53;;;-3.70;99.90;;;;;;4197560;28;20277;-61
2023/02/16 05:09:26;;;;;;;285.07;63.23;;;-3.70;99.90;;;;;;4187579;28;20335;-67
2023/02/16 05:16:06;;;;;;;212.13;81.60;;;-3.60;99.90;;;;;;4198397;28;20394;-67
2023/02/16 05:18:07;;;;;;;195.03;60.43;;;-3.60;99.90;;;;;;4197592;28;20606;-62
2023/02/16 05:20:10;;;;;;;375.67;63.83;;;-3.50;99.90;;;;;;4186474;28;20270;-64
2023/02/16 05:22:12;;;;;;;282.73;56.77;;;-3.50;99.90;;;;;;4181103;28;20270;-63
2023/02/16 05:24:13;;;;;;;166.80;46.40;;;-3.50;99.90;;;;;;4181936;28;20266;-64
2023/02/16 05:26:14;;;;;;;200.27;47.93;;;-3.50;99.90;;;;;;4181455;28;20278;-64
2023/02/16 05:28:15;;;;;;;337.23;62.23;;;-3.40;99.90;;;;;;4182797;28;20320;-62
2023/02/16 05:30:16;;;;;;;253.40;50.77;;;-3.40;99.90;;;;;;4181508;28;20704;-62
2023/02/16 05:32:18;;;;;;;351.43;61.73;;;-3.40;99.90;;;;;;4182813;28;20319;-62
2023/02/16 05:34:19;;;;;;;184.10;47.63;;;-3.40;99.90;;;;;;4181717;28;20262;-66
2023/02/16 05:36:21;;;;;;;229.97;48.10;;;-3.50;99.90;;;;;;4193820;28;20285;-63
2023/02/16 05:38:22;;;;;;;169.67;46.83;;;-3.50;99.90;;;;;;4188718;28;20320;-65
2023/02/16 05:40:23;;;;;;;343.70;56.87;;;-3.50;99.90;;;;;;4195206;28;20258;-61
2023/02/16 05:42:24;;;;;;;210.17;49.83;;;-3.50;99.90;;;;;;4185589;28;20324;-62
2023/02/16 05:44:25;;;;;;;210.60;40.60;;;-3.50;99.90;;;;;;4193954;28;20323;-62
2023/02/16 05:46:29;;;;;;;176.27;37.77;;;-3.50;99.90;;;;;;4196594;28;20289;-61
2023/02/16 05:48:30;;;;;;;141.87;33.67;;;-3.50;99.90;;;;;;4192124;28;20650;-61
2023/02/16 05:50:31;;;;;;;178.20;37.73;;;-3.50;99.90;;;;;;4191607;28;20282;-61
2023/02/16 05:52:32;;;;;;;156.83;37.93;;;-3.50;99.90;;;;;;4194955;28;20668;-62
2023/02/16 05:54:33;;;;;;;118.07;35.67;;;-3.50;99.90;;;;;;4195926;28;20269;-61
2023/02/16 05:56:35;;;;;;;138.33;35.73;;;-3.50;99.90;;;;;;4194295;28;20680;-62
2023/02/16 05:58:36;;;;;;;112.97;35.27;;;-3.50;99.90;;;;;;4196263;28;20273;-62
2023/02/16 06:00:37;;;;;;;106.30;33.47;;;-3.50;99.90;;;;;;4194848;28;20826;-62
2023/02/16 06:02:38;;;;;;;125.13;33.87;;;-3.50;99.90;;;;;;4196053;28;20335;-61
2023/02/16 06:04:39;;;;;;;109.47;34.20;;;-3.60;99.90;;;;;;4195173;28;20328;-61
2023/02/16 06:06:41;;;;;;;99.17;34.23;;;-3.60;99.90;;;;;;4195508;28;20288;-62
2023/02/16 06:08:42;;;;;;;130.20;34.00;;;-3.60;99.90;;;;;;4195447;28;20265;-60
2023/02/16 06:10:43;;;;;;;112.13;33.07;;;-3.60;99.90;;;;;;4195595;28;20296;-61
2023/02/16 06:12:45;;;;;;;142.47;33.10;;;-3.60;99.90;;;;;;4195652;28;20273;-61
2023/02/16 06:14:46;;;;;;;92.27;33.53;;;-3.60;99.90;;;;;;4195189;28;20717;-63
2023/02/16 06:16:50;;;;;;;82.97;30.50;;;-3.60;99.90;;;;;;4195736;28;20319;-62
2023/02/16 06:18:51;;;;;;;79.40;29.77;;;-3.50;99.90;;;;;;4194550;28;20799;-63
2023/02/16 06:20:56;;;;;;;81.73;31.03;;;-3.60;99.90;;;;;;4195921;28;20307;-63
2023/02/16 06:22:57;;;;;;;93.90;32.53;;;-3.60;99.90;;;;;;4194735;28;20366;-62
2023/02/16 06:24:58;;;;;;;93.23;35.83;;;-3.60;99.90;;;;;;4195685;28;20253;-62
2023/02/16 06:26:59;;;;;;;96.97;32.83;;;-3.60;99.90;;;;;;4194733;28;20273;-62
2023/02/16 06:29:00;;;;;;;85.87;32.00;;;-3.60;99.90;;;;;;4195844;28;20278;-62
2023/02/16 06:31:02;;;;;;;91.43;31.23;;;-3.60;99.90;;;;;;4193972;28;20764;-61
2023/02/16 06:33:03;;;;;;;82.77;31.73;;;-3.50;99.90;;;;;;4195780;28;20343;-61
2023/02/16 06:35:04;;;;;;;98.37;35.77;;;-3.50;99.90;;;;;;4194712;28;20319;-61
2023/02/16 06:37:06;;;;;;;84.73;32.90;;;-3.40;99.90;;;;;;4195055;28;20668;-61
2023/02/16 06:39:07;;;;;;;96.67;34.83;;;-3.40;99.90;;;;;;4194673;28;20242;-61
2023/02/16 06:41:09;;;;;;;78.43;31.43;;;-3.30;99.90;;;;;;4194763;28;20269;-62
2023/02/16 06:43:10;;;;;;;69.10;27.03;;;-3.30;99.90;;;;;;4194981;28;20257;-61
2023/02/16 06:45:11;;;;;;;69.53;27.73;;;-3.30;99.90;;;;;;4194863;28;20327;-61
2023/02/16 06:47:12;;;;;;;69.07;24.73;;;-3.30;99.90;;;;;;4193913;28;20729;-62
2023/02/16 06:49:19;;;;;;;70.03;28.77;;;-3.40;99.90;;;;;;4193875;28;20292;-62
2023/02/16 06:51:21;;;;;;;76.73;27.77;;;-3.40;99.90;;;;;;4195560;28;20687;-62
2023/02/16 06:53:22;;;;;;;82.23;31.77;;;-3.40;99.90;;;;;;4194525;28;20327;-62
2023/02/16 06:55:23;;;;;;;83.80;31.40;;;-3.30;99.90;;;;;;4195265;28;20309;-62
2023/02/16 06:57:24;;;;;;;79.33;32.47;;;-3.30;99.90;;;;;;4192319;28;20721;-60
2023/02/16 06:59:27;;;;;;;70.27;27.50;;;-3.30;99.90;;;;;;4191725;28;20301;-61
2023/02/16 07:01:29;;;;;;;69.33;28.50;;;-3.30;99.90;;;;;;4186046;28;20969;-62
2023/02/16 07:03:30;;;;;;;74.83;29.50;;;-3.30;99.90;;;;;;4190535;28;20769;-61
2023/02/16 07:05:31;;;;;;;72.67;27.83;;;-3.30;99.90;;;;;;4187855;28;20679;-62
2023/02/16 07:07:32;;;;;;;60.37;25.83;;;-3.30;99.90;;;;;;4190224;28;20254;-62
2023/02/16 07:09:36;;;;;;;65.97;26.47;;;-3.40;99.90;;;;;;4187333;28;20253;-63
2023/02/16 07:11:37;;;;;;;71.07;26.80;;;-3.30;99.90;;;;;;4189710;28;20718;-62
2023/02/16 07:13:38;;;;;;;64.77;26.60;;;-3.30;99.90;;;;;;4187678;28;20270;-63
2023/02/16 07:15:39;;;;;;;77.37;30.47;;;-3.30;99.90;;;;;;4189149;28;20354;-63
2023/02/16 07:17:40;;;;;;;73.37;30.07;;;-3.30;99.90;;;;;;4191214;28;20326;-63
2023/02/16 07:19:41;;;;;;;79.17;31.40;;;-3.30;99.90;;;;;;4187485;28;20315;-70
2023/02/16 07:21:43;;;;;;;75.90;29.13;;;-3.20;99.90;;;;;;4180712;28;20384;-62
2023/02/16 07:23:44;;;;;;;70.03;29.43;;;-3.10;99.90;;;;;;4177187;28;20316;-62
2023/02/16 07:25:46;;;;;;;69.60;29.97;;;-3.10;99.90;;;;;;4191327;28;20273;-62
2023/02/16 07:27:47;;;;;;;73.47;28.67;;;-3.00;99.90;;;;;;4189259;28;20314;-62
2023/02/16 07:29:48;;;;;;;72.83;30.10;;;-3.10;99.90;;;;;;4194656;28;20284;-62
2023/02/16 07:31:50;;;;;;;65.40;26.97;;;-3.00;99.90;;;;;;4180729;28;20343;-63
2023/02/16 07:33:52;;;;;;;59.37;23.43;;;-3.10;99.90;;;;;;4177486;28;20349;-64
2023/02/16 07:35:53;;;;;;;61.03;26.73;;;-3.00;99.90;;;;;;4176495;28;20298;-62
2023/02/16 07:37:54;;;;;;;75.27;29.37;;;-2.90;99.90;;;;;;4177999;28;20285;-64
2023/02/16 07:39:56;;;;;;;67.77;28.67;;;-2.80;99.90;;;;;;4176592;28;20300;-62
2023/02/16 07:41:57;;;;;;;68.20;27.77;;;-2.70;99.90;;;;;;4178734;28;20286;-58
2023/02/16 07:43:58;;;;;;;67.93;26.90;;;-2.60;99.90;;;;;;4177193;28;20320;-62
2023/02/16 07:46:00;;;;;;;68.53;29.07;;;-2.60;99.90;;;;;;4178289;28;20282;-61
2023/02/16 07:48:01;;;;;;;66.80;27.97;;;-2.60;99.90;;;;;;4176993;28;20669;-59
2023/02/16 07:50:04;;;;;;;62.67;24.93;;;-2.50;99.90;;;;;;4184043;28;20311;-58
2023/02/16 07:52:05;;;;;;;63.50;24.63;;;-2.60;99.90;;;;;;4179364;28;20290;-66
2023/02/16 07:54:07;;;;;;;73.07;28.30;;;-2.50;99.90;;;;;;4185460;28;20270;-65
2023/02/16 07:56:08;;;;;;;76.20;28.73;;;-2.60;99.90;;;;;;4184721;28;20420;-62
2023/02/16 07:58:09;;;;;;;79.77;36.23;;;-2.50;99.90;;;;;;4180457;28;20278;-66
2023/02/16 08:00:10;;;;;;;64.33;27.03;;;-2.50;99.90;;;;;;4181981;28;20342;-62
2023/02/16 08:02:16;;;;;;;53.93;22.47;;;-2.40;99.90;;;;;;4178450;28;20282;-63
2023/02/16 08:04:17;;;;;;;52.93;22.27;;;-2.40;99.90;;;;;;4188061;28;20774;-63
2023/02/16 08:06:19;;;;;;;48.73;21.57;;;-2.40;99.90;;;;;;4193577;28;20265;-60
2023/02/16 08:08:20;;;;;;;49.33;20.17;;;-2.30;99.90;;;;;;4194406;28;20257;-61
2023/02/16 08:10:22;;;;;;;52.13;20.67;;;-2.20;99.90;;;;;;4188187;28;21021;-61
2023/02/16 08:12:23;;;;;;;55.47;23.87;;;-2.20;99.90;;;;;;4180884;28;20281;-62
2023/02/16 08:14:24;;;;;;;57.67;24.07;;;-2.10;99.90;;;;;;4176142;28;20282;-62
2023/02/16 08:16:27;;;;;;;59.97;25.00;;;-2.00;99.90;;;;;;4177192;28;20780;-62
2023/02/16 08:18:29;;;;;;;68.07;29.53;;;-1.90;99.90;;;;;;4179546;28;20867;-63
2023/02/16 08:20:30;;;;;;;65.73;28.43;;;-1.80;99.90;;;;;;4178939;28;20661;-62
2023/02/16 08:22:32;;;;;;;74.10;35.10;;;-1.80;99.90;;;;;;4178115;28;20709;-62
2023/02/16 08:24:33;;;;;;;70.67;29.43;;;-1.80;99.90;;;;;;4178766;28;20281;-63
2023/02/16 08:26:40;;;;;;;69.10;29.87;;;-1.80;99.90;;;;;;4181976;28;20278;-62
2023/02/16 08:28:44;;;;;;;87.37;40.37;;;-1.80;99.90;;;;;;4175905;28;20315;-63
2023/02/16 08:30:45;;;;;;;71.67;30.70;;;-1.70;99.90;;;;;;4177593;28;20254;-62
2023/02/16 08:32:49;;;;;;;75.87;33.77;;;-1.70;99.90;;;;;;4177043;28;20301;-61
2023/02/16 08:34:51;;;;;;;74.57;31.63;;;-1.60;99.90;;;;;;4177108;28;20339;-61
2023/02/16 08:36:55;;;;;;;70.50;29.70;;;-1.60;99.90;;;;;;4176177;28;20312;-62
2023/02/16 08:38:56;;;;;;;75.93;31.40;;;-1.70;99.90;;;;;;4177708;28;20274;-61
2023/02/16 08:40:58;;;;;;;78.13;33.27;;;-1.60;99.90;;;;;;4177562;28;20372;-61
2023/02/16 08:42:59;;;;;;;83.93;33.67;;;-1.50;99.90;;;;;;4187532;28;20327;-62
2023/02/16 08:45:00;;;;;;;79.17;32.40;;;-1.50;99.90;;;;;;4177792;28;20263;-65
2023/02/16 08:47:02;;;;;;;80.13;34.20;;;-1.50;99.90;;;;;;4177478;28;20266;-62
2023/02/16 08:49:05;;;;;;;74.60;30.23;;;-1.60;99.90;;;;;;4177354;28;20289;-63
2023/02/16 08:51:06;;;;;;;79.43;29.53;;;-1.70;99.90;;;;;;4181226;28;20390;-66
2023/02/16 08:53:07;;;;;;;72.40;28.93;;;-1.90;99.90;;;;;;4176651;28;20925;-67
2023/02/16 08:55:08;;;;;;;71.87;29.77;;;-2.00;99.90;;;;;;4183291;28;20826;-68
2023/02/16 08:57:10;;;;;;;73.43;30.90;;;-2.00;99.90;;;;;;4186682;28;20324;-63
2023/02/16 08:59:11;;;;;;;90.73;33.10;;;-2.00;99.90;;;;;;4176596;28;20270;-63
2023/02/16 09:01:14;;;;;;;78.90;32.40;;;-2.10;99.90;;;;;;4176665;28;20367;-62
2023/02/16 09:03:18;;;;;;;78.27;28.83;;;-2.00;99.90;;;;;;4183509;28;20277;-64
2023/02/16 09:05:19;;;;;;;79.80;30.03;;;-2.00;99.90;;;;;;4193402;28;20323;-62
2023/02/16 09:07:21;;;;;;;84.73;29.53;;;-2.10;99.90;;;;;;4191094;28;20737;-65
2023/02/16 09:09:22;;;;;;;136.87;30.33;;;-2.00;99.90;;;;;;4191684;28;20269;-61
2023/02/16 09:11:24;;;;;;;100.20;29.47;;;-2.10;99.90;;;;;;4194123;28;20327;-69
2023/02/16 09:13:25;;;;;;;110.30;32.60;;;-2.10;99.90;;;;;;4187050;28;20340;-62
2023/02/16 09:15:27;;;;;;;122.73;33.37;;;-2.10;99.90;;;;;;4180695;28;20266;-63
2023/02/16 09:17:28;;;;;;;94.67;34.27;;;-2.10;99.90;;;;;;4189118;28;20426;-65
2023/02/16 09:19:29;;;;;;;93.53;34.23;;;-2.00;99.90;;;;;;4179342;28;20324;-63
2023/02/16 09:21:31;;;;;;;95.60;34.13;;;-1.90;99.90;;;;;;4179980;28;20331;-64
2023/02/16 09:23:34;;;;;;;80.37;32.60;;;-1.80;99.90;;;;;;4178821;28;20262;-66
2023/02/16 09:25:37;;;;;;;92.67;33.93;;;-1.70;99.90;;;;;;4179305;28;20278;-64
2023/02/16 09:27:38;;;;;;;89.33;36.03;;;-1.50;99.90;;;;;;4181412;28;20266;-62
2023/02/16 09:29:40;;;;;;;88.80;34.73;;;-1.50;99.90;;;;;;4178616;28;20266;-63
2023/02/16 09:31:43;;;;;;;92.47;34.73;;;-1.30;99.90;;;;;;4178440;28;20847;-63
2023/02/16 09:33:45;;;;;;;89.80;34.27;;;-1.20;99.90;;;;;;4178607;28;20279;-64
2023/02/16 09:35:46;;;;;;;110.80;39.00;;;-1.30;99.90;;;;;;4180230;28;20250;-64
2023/02/16 09:37:48;;;;;;;97.37;36.07;;;-1.40;99.90;;;;;;4180895;28;20736;-62
2023/02/16 09:39:49;;;;;;;97.93;36.53;;;-1.50;99.90;;;;;;4179778;28;20677;-63
2023/02/16 09:42:03;;;;;;;105.77;37.93;;;-1.40;99.90;;;;;;4189696;28;20825;-62
2023/02/16 09:44:08;;;;;;;117.47;39.50;;;-1.40;99.90;;;;;;4180405;28;20376;-63
2023/02/16 09:46:12;;;;;;;117.03;41.17;;;-1.40;99.90;;;;;;4192388;28;20281;-62
2023/02/16 09:48:41;;;;;;;120.37;42.83;;;-1.50;99.90;;;;;;4179514;28;20262;-62
2023/02/16 09:50:42;;;;;;;108.87;39.63;;;-1.60;99.90;;;;;;4187515;28;20758;-63
2023/02/16 09:52:59;;;;;;;113.97;40.70;;;-1.50;99.90;;;;;;4185033;28;20294;-60
2023/02/16 09:55:05;;;;;;;105.13;40.43;;;-1.40;99.90;;;;;;4183965;28;20261;-63
2023/02/16 09:57:31;;;;;;;107.77;38.93;;;-1.40;99.90;;;;;;4194369;28;20341;-68
2023/02/16 09:59:37;;;;;;;109.93;38.27;;;-1.50;99.90;;;;;;4181423;28;20666;-60
2023/02/16 10:01:40;;;;;;;114.20;38.73;;;-1.50;99.90;;;;;;4176813;28;20324;-65
2023/02/16 10:04:31;;;;;;;115.67;39.77;;;-1.50;99.90;;;;;;4179295;28;20328;-61
2023/02/16 10:06:42;;;;;;;102.43;37.05;;;-1.50;99.90;;;;;;4167580;28;20273;-67
2023/02/16 10:08:49;;;;;;;110.27;36.67;;;-1.40;99.90;;;;;;4192636;28;20130;-59
2023/02/16 10:13:43;;;;;;;106.77;39.30;;;-1.30;99.90;;;;;;4179928;28;20385;-60
2023/02/16 10:15:48;;;;;;;112.97;39.70;;;-1.20;99.90;;;;;;4184423;28;20749;-61
2023/02/16 10:18:07;;;;;;;110.40;37.90;;;-1.10;99.90;;;;;;4194658;28;20090;-61
2023/02/16 10:20:33;;;;;;;91.07;32.50;;;-1.00;99.90;;;;;;4193672;28;20281;-60
2023/02/16 10:22:44;;;;;;;93.17;32.27;;;-1.00;99.90;;;;;;4194659;28;20282;-60
2023/02/16 10:25:13;;;;;;;100.57;34.20;;;-1.00;99.90;;;;;;4187847;28;20378;-60
2023/02/16 10:27:15;;;;;;;88.13;32.53;;;-1.00;99.90;;;;;;4189482;28;20269;-61
2023/02/16 10:29:20;;;;;;;86.07;31.10;;;-0.90;99.90;;;;;;4194660;28;20613;-60
2023/02/16 10:31:43;;;;;;;81.63;30.67;;;-0.90;99.90;;;;;;4181671;28;20344;-61
2023/02/16 10:33:55;;;;;;;85.63;31.20;;;-0.90;99.90;;;;;;4178102;28;20657;-64
2023/02/16 10:36:09;;;;;;;85.27;31.50;;;-0.90;99.90;;;;;;4179058;28;20325;-68
2023/02/16 10:38:36;;;;;;;80.77;29.63;;;-0.80;99.90;;;;;;4177538;28;20290;-64
2023/02/16 10:40:56;;;;;;;85.03;29.03;;;-0.80;99.90;;;;;;4179036;28;20643;-64
2023/02/16 10:43:14;;;;;;;84.22;30.58;;;-0.80;99.90;;;;;;4185589;28;20326;-70
2023/02/16 10:45:45;;;;;;;88.17;31.50;;;-0.70;99.90;;;;;;4195028;28;20029;-67
2023/02/16 10:47:47;;;;;;;85.13;30.63;;;-0.70;99.90;;;;;;4190097;28;20269;-61
2023/02/16 10:49:49;;;;;;;93.77;32.77;;;-0.60;99.90;;;;;;4194972;28;20265;-61
2023/02/16 10:51:53;;;;;;;89.60;31.03;;;-0.60;99.90;;;;;;4194591;28;20293;-61
2023/02/16 10:54:16;;;;;;;89.20;31.93;;;-0.70;99.90;;;;;;4195272;28;20307;-60
2023/02/16 10:56:51;;;;;;;90.23;31.63;;;-0.70;99.90;;;;;;4194880;28;20741;-62
2023/02/16 10:58:52;;;;;;;69.87;27.60;;;-0.70;99.90;;;;;;4698999;22;20257;-70
2023/02/16 11:01:00;;;;;;;82.20;31.67;;;-0.70;99.90;;;;;;4155513;28;20786;-69
2023/02/16 11:03:02;;;;;;;87.10;31.53;;;-0.60;99.90;;;;;;4161592;28;20297;-70
2023/02/16 11:05:37;;;;;;;84.70;30.00;;;-0.60;99.90;;;;;;4161856;28;20267;-61
2023/02/16 11:07:51;;;;;;;87.33;30.20;;;-0.60;99.90;;;;;;4162877;28;20805;-68
2023/02/16 11:09:56;;;;;;;90.23;31.97;;;-0.70;99.90;;;;;;4168327;28;20403;-66
2023/02/16 11:11:57;;;;;;;88.53;30.90;;;-0.60;99.90;;;;;;4175016;28;20285;-63
2023/02/16 11:14:05;;;;;;;81.50;31.03;;;-0.60;99.90;;;;;;4178109;28;20300;-65